N970TW KFNL-KFNL
Flight info
| Callsign | N970TW |
|---|---|
| Flight time | 0h 6m |
| Altitude | 5500 |
| Route | LOCAL PATTERN WORK CLOSED TRAFFIC |
| Aircraft | C152/L-V/N |
Departure
| Time | 2026-04-29 21:50 |
|---|---|
| Airport | Northern Colorado Regional Airport (KFNL) |
Arrival
| Time | 2026-04-29 21:57 |
|---|---|
| Airport | Northern Colorado Regional Airport (KFNL) |
| Time | Latitude | Longitude | Altitude | Speed | Heading |
|---|---|---|---|---|---|
| 2026-04-29 21:28 | 40.44920 | -105.00841 | 4999 ft | 0 kts | 46° |
| 2026-04-29 21:42 | 40.44922 | -105.00839 | 4999 ft | 3 kts | 47° |
| 2026-04-29 21:43 | 40.44944 | -105.00868 | 4999 ft | 9 kts | 254° |
| 2026-04-29 21:43 | 40.44940 | -105.00903 | 4999 ft | 0 kts | 265° |
| 2026-04-29 21:43 | 40.44940 | -105.00904 | 4999 ft | 1 kts | 265° |
| 2026-04-29 21:43 | 40.44930 | -105.00954 | 4999 ft | 9 kts | 231° |
| 2026-04-29 21:44 | 40.44864 | -105.00955 | 4999 ft | 12 kts | 162° |
| 2026-04-29 21:44 | 40.44778 | -105.00918 | 4999 ft | 14 kts | 160° |
| 2026-04-29 21:44 | 40.44679 | -105.00866 | 5000 ft | 16 kts | 159° |
| 2026-04-29 21:44 | 40.44565 | -105.00814 | 4999 ft | 18 kts | 161° |
| 2026-04-29 21:45 | 40.44439 | -105.00757 | 5000 ft | 20 kts | 161° |
| 2026-04-29 21:45 | 40.44304 | -105.00695 | 5000 ft | 21 kts | 161° |
| 2026-04-29 21:45 | 40.44166 | -105.00629 | 5000 ft | 20 kts | 159° |
| 2026-04-29 21:45 | 40.44115 | -105.00606 | 5000 ft | 0 kts | 155° |
| 2026-04-29 21:47 | 40.44092 | -105.00597 | 5000 ft | 8 kts | 177° |
| 2026-04-29 21:47 | 40.44061 | -105.00626 | 5000 ft | 0 kts | 253° |
| 2026-04-29 21:48 | 40.44047 | -105.00686 | 5001 ft | 11 kts | 257° |
| 2026-04-29 21:48 | 40.44094 | -105.00754 | 5000 ft | 14 kts | 343° |
| 2026-04-29 21:48 | 40.44234 | -105.00818 | 4999 ft | 39 kts | 340° |
| 2026-04-29 21:49 | 40.44608 | -105.00991 | 5011 ft | 69 kts | 333° |
| 2026-04-29 21:49 | 40.45034 | -105.01143 | 5173 ft | 57 kts | 338° |
| 2026-04-29 21:49 | 40.45431 | -105.01352 | 5212 ft | 59 kts | 334° |
| 2026-04-29 21:49 | 40.45802 | -105.01522 | 5275 ft | 58 kts | 333° |
| 2026-04-29 21:50 | 40.46187 | -105.01658 | 5398 ft | 55 kts | 335° |
| 2026-04-29 21:50 | 40.46593 | -105.01809 | 5464 ft | 64 kts | 339° |
| 2026-04-29 21:50 | 40.46994 | -105.01919 | 5625 ft | 54 kts | 343° |
| 2026-04-29 21:50 | 40.47360 | -105.01997 | 5736 ft | 51 kts | 343° |
| 2026-04-29 21:51 | 40.47644 | -105.02219 | 5827 ft | 55 kts | 282° |
| 2026-04-29 21:51 | 40.47395 | -105.02633 | 5862 ft | 71 kts | 218° |
| 2026-04-29 21:51 | 40.46613 | -105.03511 | 6084 ft | 75 kts | 230° |
| 2026-04-29 21:52 | 40.46270 | -105.04064 | 6174 ft | 80 kts | 233° |
| 2026-04-29 21:52 | 40.45749 | -105.04375 | 6183 ft | 91 kts | 178° |
| 2026-04-29 21:52 | 40.45107 | -105.04205 | 6194 ft | 95 kts | 166° |
| 2026-04-29 21:52 | 40.44458 | -105.03947 | 6109 ft | 103 kts | 156° |
| 2026-04-29 21:53 | 40.43856 | -105.03631 | 6235 ft | 93 kts | 158° |
| 2026-04-29 21:53 | 40.43238 | -105.03360 | 6247 ft | 97 kts | 160° |
| 2026-04-29 21:53 | 40.42580 | -105.03046 | 6166 ft | 102 kts | 159° |
| 2026-04-29 21:53 | 40.41900 | -105.02741 | 6093 ft | 102 kts | 160° |
| 2026-04-29 21:54 | 40.41223 | -105.02479 | 6054 ft | 100 kts | 162° |
| 2026-04-29 21:54 | 40.40612 | -105.02095 | 6035 ft | 95 kts | 129° |
| 2026-04-29 21:54 | 40.40444 | -105.01306 | 5991 ft | 91 kts | 86° |
| 2026-04-29 21:54 | 40.40456 | -105.00507 | 6052 ft | 87 kts | 84° |
| 2026-04-29 21:55 | 40.40759 | -104.99866 | 5959 ft | 83 kts | 26° |
| 2026-04-29 21:55 | 40.41336 | -104.99777 | 5706 ft | 86 kts | 359° |
| 2026-04-29 21:55 | 40.41915 | -104.99886 | 5490 ft | 85 kts | 353° |
| 2026-04-29 21:55 | 40.42458 | -105.00012 | 5385 ft | 71 kts | 342° |
| 2026-04-29 21:56 | 40.42882 | -105.00167 | 5334 ft | 60 kts | 331° |
| 2026-04-29 21:56 | 40.43273 | -105.00367 | 5230 ft | 60 kts | 336° |
| 2026-04-29 21:56 | 40.43669 | -105.00550 | 5127 ft | 59 kts | 334° |
| 2026-04-29 21:56 | 40.44036 | -105.00718 | 5056 ft | 52 kts | 330° |
| 2026-04-29 21:57 | 40.44358 | -105.00862 | 5001 ft | 43 kts | 333° |
| 2026-04-29 21:57 | 40.44604 | -105.00989 | 5001 ft | 34 kts | 344° |
| 2026-04-29 21:57 | 40.44769 | -105.01023 | 5000 ft | 21 kts | 10° |
| 2026-04-29 21:57 | 40.44897 | -105.00990 | 4999 ft | 12 kts | 11° |
| 2026-04-29 21:58 | 40.44983 | -105.01009 | 4999 ft | 14 kts | 340° |
| 2026-04-29 21:58 | 40.45082 | -105.01053 | 4999 ft | 16 kts | 335° |
| 2026-04-29 21:58 | 40.45187 | -105.01105 | 4999 ft | 17 kts | 341° |
| 2026-04-29 21:58 | 40.45242 | -105.01131 | 4999 ft | 0 kts | 339° |
| 2026-04-29 21:59 | 40.45268 | -105.01136 | 4999 ft | 10 kts | 11° |
| 2026-04-29 21:59 | 40.45318 | -105.01037 | 4998 ft | 19 kts | 71° |
| 2026-04-29 21:59 | 40.45360 | -105.00868 | 4998 ft | 19 kts | 71° |
| 2026-04-29 21:59 | 40.45388 | -105.00759 | 4999 ft | 20 kts | 72° |